createdAt,value
2023-05-01T01:21:46.544Z,9.57
2023-05-01T01:34:02.455Z,9.60
2023-05-01T01:39:11.708Z,9.59
2023-05-01T01:44:21.411Z,9.55
2023-05-01T01:49:27.556Z,9.50
2023-05-01T01:54:34.185Z,9.46
2023-05-01T01:59:37.017Z,9.34
2023-05-01T02:04:43.922Z,9.33
2023-05-01T02:09:47.565Z,9.29
2023-05-01T02:14:51.955Z,9.14
2023-05-01T02:19:58.041Z,9.12
2023-05-01T02:25:02.108Z,9.19
2023-05-01T02:30:07.475Z,9.22
2023-05-01T02:35:12.046Z,9.22
2023-05-01T02:40:15.912Z,9.31
2023-05-01T02:45:20.965Z,9.27
2023-05-01T02:50:27.367Z,9.27
2023-05-01T02:55:30.398Z,9.35
2023-05-01T03:00:34.575Z,9.29
2023-05-01T03:05:39.551Z,9.31
2023-05-01T03:10:43.248Z,9.37
2023-05-01T03:15:46.516Z,9.43
2023-05-01T03:20:54.971Z,9.49
2023-05-01T03:25:59.530Z,9.55
2023-05-01T03:31:02.731Z,9.55
2023-05-01T03:36:08.488Z,9.60
2023-05-01T03:41:11.381Z,9.63
2023-05-01T03:46:29.279Z,9.65
2023-05-01T03:51:33.954Z,9.71
2023-05-01T03:56:37.049Z,9.75
2023-05-01T04:01:41.431Z,9.79
2023-05-01T04:06:45.791Z,9.83
2023-05-01T04:11:48.581Z,9.89
2023-05-01T04:16:52.641Z,9.94
2023-05-01T04:21:56.929Z,9.96
2023-05-01T04:26:59.745Z,10.00
2023-05-01T04:32:02.524Z,10.02
2023-05-01T04:37:08.910Z,10.05
2023-05-01T04:42:11.642Z,10.08
2023-05-01T04:47:14.690Z,10.14
2023-05-01T04:52:18.763Z,10.21
2023-05-01T04:57:31.755Z,10.21
2023-05-01T05:02:36.092Z,10.24
2023-05-01T05:07:40.689Z,10.20
2023-05-01T05:13:12.511Z,10.28
2023-05-01T05:18:15.831Z,10.32
2023-05-01T05:23:21.427Z,10.30
2023-05-01T05:28:24.336Z,10.34
2023-05-01T05:33:29.077Z,10.36
2023-05-01T05:38:33.412Z,10.47
2023-05-01T05:43:37.322Z,10.57
2023-05-01T05:48:41.678Z,10.66
2023-05-01T05:53:47.486Z,10.83
2023-05-01T05:58:50.834Z,10.96
2023-05-01T06:03:55.777Z,11.13
2023-05-01T06:09:03.766Z,11.34
2023-05-01T06:14:07.716Z,11.49
2023-05-01T06:19:12.128Z,11.61
2023-05-01T06:24:17.216Z,11.55
2023-05-01T06:29:24.984Z,12.11
2023-05-01T06:34:28.841Z,12.03
2023-05-01T06:39:33.816Z,11.94
2023-05-01T06:44:36.857Z,12.18
2023-05-01T06:49:39.883Z,12.52
2023-05-01T06:54:44.381Z,12.80
2023-05-01T06:59:47.158Z,13.08
2023-05-01T07:04:49.919Z,12.83
2023-05-01T07:09:54.302Z,12.95
2023-05-01T07:14:57.676Z,12.93
2023-05-01T07:20:01.801Z,13.02
2023-05-01T07:25:07.174Z,13.08
2023-05-01T07:30:12.361Z,13.48
2023-05-01T07:35:15.150Z,13.50
2023-05-01T07:40:19.328Z,13.92
2023-05-01T07:45:22.082Z,14.28
2023-05-01T07:50:25.941Z,14.59
2023-05-01T07:55:31.236Z,14.69
2023-05-01T08:00:34.314Z,14.63
2023-05-01T08:05:37.048Z,14.55
2023-05-01T08:10:41.778Z,14.88
2023-05-01T08:15:44.574Z,15.38
2023-05-01T08:20:48.492Z,16.16
2023-05-01T08:25:54.048Z,16.21
2023-05-01T08:30:56.949Z,16.69
2023-05-01T08:36:00.804Z,17.58
2023-05-01T08:41:07.005Z,17.27
2023-05-01T08:46:13.192Z,17.55
2023-05-01T08:51:21.171Z,18.07
2023-05-01T08:56:26.531Z,18.61
2023-05-01T09:01:32.532Z,18.28
2023-05-01T09:06:35.504Z,18.46
2023-05-01T09:11:40.060Z,18.56
2023-05-01T09:16:43.630Z,18.28
2023-05-01T09:21:47.518Z,19.00
2023-05-01T09:26:52.192Z,18.76
2023-05-01T09:31:55.264Z,18.76
2023-05-01T09:36:58.609Z,19.62
2023-05-01T09:42:03.442Z,19.59
2023-05-01T09:47:08.256Z,20.02
2023-05-01T09:52:14.784Z,20.54
2023-05-01T09:57:34.855Z,20.01
2023-05-01T10:02:38.032Z,19.53
2023-05-01T10:07:41.908Z,19.45
2023-05-01T10:12:46.815Z,19.49
2023-05-01T10:17:52.757Z,19.79
2023-05-01T10:22:56.063Z,20.85
2023-05-01T10:28:04.580Z,21.32
2023-05-01T10:33:07.826Z,21.12
2023-05-01T10:38:14.802Z,21.96
2023-05-01T10:43:25.727Z,21.68
2023-05-01T10:48:59.376Z,22.36
2023-05-01T10:54:25.579Z,21.78
2023-05-01T11:00:09.760Z,21.53
2023-05-01T11:05:14.295Z,21.43
2023-05-01T11:10:28.199Z,20.86
2023-05-01T11:15:35.808Z,20.61
2023-05-01T11:20:52.176Z,20.93
2023-05-01T11:26:06.220Z,20.57
2023-05-01T11:31:11.931Z,20.01
2023-05-01T11:36:15.088Z,20.39
2023-05-01T11:41:21.884Z,19.77
2023-05-01T11:46:27.702Z,19.98
2023-05-01T11:51:31.923Z,19.77
2023-05-01T11:56:36.561Z,20.11
2023-05-01T12:01:45.020Z,20.10
2023-05-01T12:06:48.399Z,19.81
2023-05-01T12:11:53.264Z,19.83
2023-05-01T12:16:58.423Z,19.79
2023-05-01T12:22:08.013Z,19.80
2023-05-01T12:27:11.252Z,19.43
2023-05-01T12:32:16.826Z,18.94
2023-05-01T12:37:21.168Z,18.90
2023-05-01T12:42:23.943Z,18.91
2023-05-01T12:47:39.200Z,18.98
2023-05-01T12:52:42.760Z,19.18
2023-05-01T12:57:55.380Z,19.68
2023-05-01T13:03:05.957Z,20.29
2023-05-01T13:08:08.882Z,20.66
2023-05-01T13:13:12.611Z,21.23
2023-05-01T13:18:18.096Z,21.35
2023-05-01T13:23:20.922Z,21.41
2023-05-01T13:28:24.024Z,22.18
2023-05-01T13:33:32.522Z,22.28
2023-05-01T13:38:43.636Z,21.96
2023-05-01T13:43:47.110Z,22.52
2023-05-01T13:48:52.100Z,23.08
2023-05-01T13:53:57.484Z,22.21
2023-05-01T13:59:00.750Z,21.15
2023-05-01T14:04:04.976Z,20.66
2023-05-01T14:09:07.830Z,20.50
2023-05-01T14:14:10.909Z,19.99
2023-05-01T14:19:16.143Z,19.46
2023-05-01T14:24:19.176Z,18.90
2023-05-01T14:29:24.895Z,18.74
2023-05-01T14:34:29.349Z,18.70
2023-05-01T14:39:34.022Z,18.34
2023-05-01T14:44:41.064Z,18.45
2023-05-01T14:49:45.075Z,18.20
2023-05-01T14:54:49.140Z,18.41
2023-05-01T14:59:52.174Z,18.52
2023-05-01T15:04:57.428Z,18.71
2023-05-01T15:10:00.674Z,18.64
2023-05-01T15:15:05.245Z,18.60
2023-05-01T15:20:12.903Z,18.65
2023-05-01T15:25:16.515Z,18.40
2023-05-01T15:30:19.608Z,18.52
2023-05-01T15:35:24.424Z,18.66
2023-05-01T15:40:27.928Z,18.97
2023-05-01T15:45:30.917Z,18.91
2023-05-01T15:50:35.146Z,18.75
2023-05-01T15:55:38.194Z,18.76
2023-05-01T16:00:40.883Z,18.84
2023-05-01T16:05:47.771Z,18.69
2023-05-01T16:10:50.508Z,18.49
2023-05-01T16:15:53.283Z,18.26
2023-05-01T16:20:58.027Z,18.03
2023-05-01T16:26:00.935Z,17.76
2023-05-01T16:31:16.023Z,17.63
2023-05-01T16:36:30.285Z,17.33
2023-05-01T16:41:42.242Z,17.04
2023-05-01T16:46:53.250Z,16.99
2023-05-01T16:51:58.618Z,16.65
2023-05-01T16:57:01.441Z,16.41
2023-05-01T17:02:04.867Z,16.21
2023-05-01T17:07:09.254Z,15.93
2023-05-01T17:12:12.162Z,15.97
2023-05-01T17:17:17.468Z,15.80
2023-05-01T17:22:27.240Z,15.67
2023-05-01T17:27:31.923Z,15.49
2023-05-01T17:32:37.431Z,15.41
2023-05-01T17:37:42.377Z,15.14
2023-05-01T17:42:45.485Z,14.94
2023-05-01T17:47:48.298Z,14.85
2023-05-01T17:52:52.610Z,14.55
2023-05-01T17:57:55.637Z,14.42
2023-05-01T18:02:58.566Z,14.20
2023-05-01T18:08:04.358Z,14.14
2023-05-01T18:13:07.305Z,14.28
2023-05-01T18:18:11.342Z,14.23
2023-05-01T18:23:15.451Z,14.25
2023-05-01T18:28:19.360Z,14.15
2023-05-01T18:33:22.605Z,14.05
2023-05-01T18:38:28.838Z,13.95
2023-05-01T18:43:32.289Z,13.87
2023-05-01T18:48:35.149Z,13.75
2023-05-01T18:53:39.450Z,13.69
2023-05-01T18:58:42.475Z,13.49
2023-05-01T19:03:45.301Z,13.38
2023-05-01T19:08:49.534Z,13.29
2023-05-01T19:13:53.062Z,13.14
2023-05-01T19:18:55.841Z,13.02
2023-05-01T19:24:00.019Z,12.94
2023-05-01T19:29:02.915Z,12.81
2023-05-01T19:34:05.722Z,12.69
2023-05-01T19:39:10.236Z,12.59
2023-05-01T19:44:13.426Z,12.48
2023-05-01T19:49:16.505Z,12.41
2023-05-01T19:54:22.270Z,12.35
2023-05-01T19:59:25.163Z,12.24
2023-05-01T20:04:27.953Z,12.18
2023-05-01T20:09:33.144Z,12.14
2023-05-01T20:14:36.457Z,12.06
2023-05-01T20:19:40.032Z,12.01
2023-05-01T20:24:44.284Z,11.93
2023-05-01T20:29:47.135Z,11.87
2023-05-01T20:34:49.961Z,11.84
2023-05-01T20:39:54.354Z,11.76
2023-05-01T20:44:57.386Z,11.69
2023-05-01T20:50:00.859Z,11.65
2023-05-01T20:55:06.008Z,11.60
2023-05-01T21:00:09.997Z,11.54
2023-05-01T21:05:12.985Z,11.49
2023-05-01T21:10:17.335Z,11.46
2023-05-01T21:15:20.451Z,11.43
2023-05-01T21:20:30.831Z,11.35
2023-05-01T21:25:35.189Z,11.26
2023-05-01T21:30:38.173Z,11.16
2023-05-01T21:35:43.039Z,11.08
2023-05-01T21:40:47.350Z,11.03
2023-05-01T21:45:50.256Z,11.02
2023-05-01T21:50:53.406Z,10.92
2023-05-01T21:55:57.680Z,10.87
2023-05-01T22:01:00.730Z,10.80
2023-05-01T22:06:03.839Z,10.69
2023-05-01T22:11:08.619Z,10.65
2023-05-01T22:16:12.604Z,10.62
2023-05-01T22:21:15.335Z,10.58
2023-05-01T22:26:19.501Z,10.49
2023-05-01T22:31:22.402Z,10.35
2023-05-01T22:36:25.359Z,10.28
2023-05-01T22:41:29.457Z,10.19
2023-05-01T22:46:32.268Z,10.11
2023-05-01T22:51:35.116Z,10.03
2023-05-01T22:56:39.669Z,9.97
2023-05-01T23:01:42.434Z,9.92
2023-05-01T23:06:45.368Z,9.89
2023-05-01T23:11:49.861Z,9.77
2023-05-01T23:16:52.883Z,9.76
2023-05-01T23:22:08.717Z,9.80
2023-05-01T23:27:13.478Z,9.82
2023-05-01T23:32:23.007Z,9.84
2023-05-01T23:37:25.958Z,9.81
2023-05-01T23:42:30.130Z,9.78
2023-05-01T23:47:33.031Z,9.73
2023-05-01T23:52:36.232Z,9.72
2023-05-01T23:57:40.375Z,9.67
